sensor_id;sensor_type;location;lat;lon;timestamp;P1;durP1;ratioP1;P2;durP2;ratioP2
16705;SDS011;8469;60.136;15.180;2023-06-22T00:02:24;9.50;;;7.17;;
16705;SDS011;8469;60.136;15.180;2023-06-22T00:04:51;7.33;;;6.62;;
16705;SDS011;8469;60.136;15.180;2023-06-22T00:07:18;7.50;;;6.58;;
16705;SDS011;8469;60.136;15.180;2023-06-22T00:09:46;8.33;;;6.50;;
16705;SDS011;8469;60.136;15.180;2023-06-22T00:12:13;7.97;;;6.42;;
16705;SDS011;8469;60.136;15.180;2023-06-22T00:14:40;7.08;;;6.37;;
16705;SDS011;8469;60.136;15.180;2023-06-22T00:17:08;7.10;;;6.30;;
16705;SDS011;8469;60.136;15.180;2023-06-22T00:19:35;6.67;;;6.08;;
16705;SDS011;8469;60.136;15.180;2023-06-22T00:22:04;7.55;;;6.67;;
16705;SDS011;8469;60.136;15.180;2023-06-22T00:24:32;6.57;;;5.90;;
16705;SDS011;8469;60.136;15.180;2023-06-22T00:26:59;7.03;;;6.15;;
16705;SDS011;8469;60.136;15.180;2023-06-22T00:29:26;6.58;;;5.90;;
16705;SDS011;8469;60.136;15.180;2023-06-22T00:31:54;5.85;;;5.35;;
16705;SDS011;8469;60.136;15.180;2023-06-22T00:34:21;6.60;;;5.53;;
16705;SDS011;8469;60.136;15.180;2023-06-22T00:36:48;6.10;;;5.50;;
16705;SDS011;8469;60.136;15.180;2023-06-22T00:39:17;5.60;;;5.10;;
16705;SDS011;8469;60.136;15.180;2023-06-22T00:41:45;6.03;;;5.43;;
16705;SDS011;8469;60.136;15.180;2023-06-22T00:44:13;5.60;;;5.10;;
16705;SDS011;8469;60.136;15.180;2023-06-22T00:46:40;5.95;;;5.35;;
16705;SDS011;8469;60.136;15.180;2023-06-22T00:49:07;5.67;;;5.17;;
16705;SDS011;8469;60.136;15.180;2023-06-22T00:51:34;5.62;;;5.12;;
16705;SDS011;8469;60.136;15.180;2023-06-22T00:54:04;5.95;;;5.35;;
16705;SDS011;8469;60.136;15.180;2023-06-22T00:56:32;5.75;;;5.25;;
16705;SDS011;8469;60.136;15.180;2023-06-22T00:59:01;7.20;;;5.97;;
16705;SDS011;8469;60.136;15.180;2023-06-22T01:01:29;6.60;;;5.90;;
16705;SDS011;8469;60.136;15.180;2023-06-22T01:03:57;6.53;;;5.90;;
16705;SDS011;8469;60.136;15.180;2023-06-22T01:06:28;8.15;;;6.50;;
16705;SDS011;8469;60.136;15.180;2023-06-22T01:09:02;7.12;;;6.42;;
16705;SDS011;8469;60.136;15.180;2023-06-22T01:11:36;7.12;;;6.05;;
16705;SDS011;8469;60.136;15.180;2023-06-22T01:14:07;7.28;;;6.58;;
16705;SDS011;8469;60.136;15.180;2023-06-22T01:16:34;6.80;;;6.20;;
16705;SDS011;8469;60.136;15.180;2023-06-22T01:21:37;8.63;;;6.53;;
16705;SDS011;8469;60.136;15.180;2023-06-22T01:29:31;7.50;;;5.93;;
16705;SDS011;8469;60.136;15.180;2023-06-22T01:32:00;7.17;;;6.30;;
16705;SDS011;8469;60.136;15.180;2023-06-22T01:34:28;7.10;;;6.40;;
16705;SDS011;8469;60.136;15.180;2023-06-22T01:36:56;7.42;;;6.45;;
16705;SDS011;8469;60.136;15.180;2023-06-22T01:39:23;7.05;;;6.25;;
16705;SDS011;8469;60.136;15.180;2023-06-22T01:41:51;10.03;;;7.07;;
16705;SDS011;8469;60.136;15.180;2023-06-22T01:44:20;7.83;;;6.58;;
16705;SDS011;8469;60.136;15.180;2023-06-22T01:46:48;8.70;;;6.97;;
16705;SDS011;8469;60.136;15.180;2023-06-22T01:49:15;8.55;;;6.28;;
16705;SDS011;8469;60.136;15.180;2023-06-22T01:51:44;8.00;;;6.58;;
16705;SDS011;8469;60.136;15.180;2023-06-22T01:54:11;8.80;;;6.95;;
16705;SDS011;8469;60.136;15.180;2023-06-22T01:56:38;8.63;;;6.95;;
16705;SDS011;8469;60.136;15.180;2023-06-22T01:59:14;9.50;;;7.33;;
16705;SDS011;8469;60.136;15.180;2023-06-22T02:02:02;8.60;;;7.33;;
16705;SDS011;8469;60.136;15.180;2023-06-22T02:04:34;8.33;;;7.37;;
16705;SDS011;8469;60.136;15.180;2023-06-22T02:07:02;8.55;;;7.15;;
16705;SDS011;8469;60.136;15.180;2023-06-22T02:09:30;7.17;;;6.47;;
16705;SDS011;8469;60.136;15.180;2023-06-22T02:11:58;7.47;;;6.67;;
16705;SDS011;8469;60.136;15.180;2023-06-22T02:14:27;8.03;;;7.20;;
16705;SDS011;8469;60.136;15.180;2023-06-22T02:16:54;12.03;;;7.70;;
16705;SDS011;8469;60.136;15.180;2023-06-22T02:19:26;10.30;;;7.97;;
16705;SDS011;8469;60.136;15.180;2023-06-22T02:21:53;9.17;;;7.80;;
16705;SDS011;8469;60.136;15.180;2023-06-22T02:24:21;10.60;;;7.83;;
16705;SDS011;8469;60.136;15.180;2023-06-22T02:26:49;9.15;;;8.13;;
16705;SDS011;8469;60.136;15.180;2023-06-22T02:29:17;8.90;;;7.97;;
16705;SDS011;8469;60.136;15.180;2023-06-22T02:31:45;10.35;;;8.13;;
16705;SDS011;8469;60.136;15.180;2023-06-22T02:34:12;10.67;;;7.63;;
16705;SDS011;8469;60.136;15.180;2023-06-22T02:36:41;9.85;;;7.72;;
16705;SDS011;8469;60.136;15.180;2023-06-22T02:39:10;10.68;;;8.10;;
16705;SDS011;8469;60.136;15.180;2023-06-22T02:41:37;9.50;;;8.50;;
16705;SDS011;8469;60.136;15.180;2023-06-22T02:44:04;11.05;;;8.33;;
16705;SDS011;8469;60.136;15.180;2023-06-22T02:46:32;9.05;;;7.92;;
16705;SDS011;8469;60.136;15.180;2023-06-22T02:49:00;10.38;;;7.85;;
16705;SDS011;8469;60.136;15.180;2023-06-22T02:51:27;9.18;;;7.65;;
16705;SDS011;8469;60.136;15.180;2023-06-22T02:53:54;9.90;;;7.70;;
16705;SDS011;8469;60.136;15.180;2023-06-22T02:56:23;10.08;;;7.95;;
16705;SDS011;8469;60.136;15.180;2023-06-22T02:58:51;9.58;;;7.97;;
16705;SDS011;8469;60.136;15.180;2023-06-22T03:01:19;9.43;;;8.03;;
16705;SDS011;8469;60.136;15.180;2023-06-22T03:03:50;10.77;;;8.03;;
16705;SDS011;8469;60.136;15.180;2023-06-22T03:06:17;9.00;;;7.62;;
16705;SDS011;8469;60.136;15.180;2023-06-22T03:08:46;10.85;;;7.80;;
16705;SDS011;8469;60.136;15.180;2023-06-22T03:11:14;10.03;;;7.65;;
16705;SDS011;8469;60.136;15.180;2023-06-22T03:13:41;9.60;;;7.97;;
16705;SDS011;8469;60.136;15.180;2023-06-22T03:16:09;8.68;;;7.80;;
16705;SDS011;8469;60.136;15.180;2023-06-22T03:18:39;8.70;;;7.42;;
16705;SDS011;8469;60.136;15.180;2023-06-22T03:21:07;8.58;;;7.50;;
16705;SDS011;8469;60.136;15.180;2023-06-22T03:23:35;9.23;;;8.00;;
16705;SDS011;8469;60.136;15.180;2023-06-22T03:26:02;9.30;;;7.60;;
16705;SDS011;8469;60.136;15.180;2023-06-22T03:28:30;10.50;;;8.38;;
16705;SDS011;8469;60.136;15.180;2023-06-22T03:30:57;8.98;;;7.47;;
16705;SDS011;8469;60.136;15.180;2023-06-22T03:33:25;11.05;;;8.23;;
16705;SDS011;8469;60.136;15.180;2023-06-22T03:35:52;9.20;;;7.78;;
16705;SDS011;8469;60.136;15.180;2023-06-22T03:38:20;10.85;;;7.83;;
16705;SDS011;8469;60.136;15.180;2023-06-22T03:40:47;10.40;;;7.83;;
16705;SDS011;8469;60.136;15.180;2023-06-22T03:43:15;8.93;;;8.00;;
16705;SDS011;8469;60.136;15.180;2023-06-22T03:45:42;11.28;;;8.68;;
16705;SDS011;8469;60.136;15.180;2023-06-22T03:48:11;10.20;;;8.30;;
16705;SDS011;8469;60.136;15.180;2023-06-22T03:50:40;10.83;;;8.57;;
16705;SDS011;8469;60.136;15.180;2023-06-22T03:53:06;9.60;;;8.25;;
16705;SDS011;8469;60.136;15.180;2023-06-22T03:55:35;10.93;;;8.45;;
16705;SDS011;8469;60.136;15.180;2023-06-22T03:58:01;10.53;;;7.97;;
16705;SDS011;8469;60.136;15.180;2023-06-22T04:00:31;11.20;;;8.38;;
16705;SDS011;8469;60.136;15.180;2023-06-22T04:02:59;9.58;;;8.58;;
16705;SDS011;8469;60.136;15.180;2023-06-22T04:05:26;9.05;;;7.83;;
16705;SDS011;8469;60.136;15.180;2023-06-22T04:07:54;14.25;;;8.75;;
16705;SDS011;8469;60.136;15.180;2023-06-22T04:10:21;12.58;;;8.30;;
16705;SDS011;8469;60.136;15.180;2023-06-22T04:12:48;11.17;;;8.53;;
16705;SDS011;8469;60.136;15.180;2023-06-22T04:15:16;9.60;;;8.58;;
16705;SDS011;8469;60.136;15.180;2023-06-22T04:17:43;9.83;;;8.38;;
16705;SDS011;8469;60.136;15.180;2023-06-22T04:20:10;9.33;;;8.33;;
16705;SDS011;8469;60.136;15.180;2023-06-22T04:22:38;10.60;;;8.60;;
16705;SDS011;8469;60.136;15.180;2023-06-22T04:25:05;9.73;;;8.20;;
16705;SDS011;8469;60.136;15.180;2023-06-22T04:27:33;11.55;;;8.65;;
16705;SDS011;8469;60.136;15.180;2023-06-22T04:30:08;11.73;;;8.80;;
16705;SDS011;8469;60.136;15.180;2023-06-22T04:32:36;9.65;;;8.35;;
16705;SDS011;8469;60.136;15.180;2023-06-22T04:35:06;9.50;;;7.95;;
16705;SDS011;8469;60.136;15.180;2023-06-22T04:37:33;10.33;;;8.57;;
16705;SDS011;8469;60.136;15.180;2023-06-22T04:40:00;11.60;;;9.18;;
16705;SDS011;8469;60.136;15.180;2023-06-22T04:42:30;11.40;;;8.08;;
16705;SDS011;8469;60.136;15.180;2023-06-22T04:44:58;9.08;;;7.70;;
16705;SDS011;8469;60.136;15.180;2023-06-22T04:47:25;10.90;;;7.90;;
16705;SDS011;8469;60.136;15.180;2023-06-22T04:49:53;10.47;;;7.87;;
16705;SDS011;8469;60.136;15.180;2023-06-22T04:52:20;9.68;;;7.50;;
16705;SDS011;8469;60.136;15.180;2023-06-22T04:54:49;10.58;;;7.87;;
16705;SDS011;8469;60.136;15.180;2023-06-22T04:57:18;10.08;;;7.58;;
16705;SDS011;8469;60.136;15.180;2023-06-22T04:59:45;9.73;;;7.87;;
16705;SDS011;8469;60.136;15.180;2023-06-22T05:02:13;10.08;;;7.75;;
16705;SDS011;8469;60.136;15.180;2023-06-22T05:04:40;9.97;;;7.83;;
16705;SDS011;8469;60.136;15.180;2023-06-22T05:07:07;8.40;;;7.45;;
16705;SDS011;8469;60.136;15.180;2023-06-22T05:09:35;8.98;;;6.97;;
16705;SDS011;8469;60.136;15.180;2023-06-22T05:12:02;8.80;;;7.10;;
16705;SDS011;8469;60.136;15.180;2023-06-22T05:14:34;7.75;;;6.75;;
16705;SDS011;8469;60.136;15.180;2023-06-22T05:17:01;9.70;;;7.25;;
16705;SDS011;8469;60.136;15.180;2023-06-22T05:19:30;8.30;;;6.83;;
16705;SDS011;8469;60.136;15.180;2023-06-22T05:21:59;8.05;;;7.17;;
16705;SDS011;8469;60.136;15.180;2023-06-22T05:24:26;8.30;;;6.42;;
16705;SDS011;8469;60.136;15.180;2023-06-22T05:26:53;10.20;;;6.87;;
16705;SDS011;8469;60.136;15.180;2023-06-22T05:29:21;7.50;;;6.17;;
16705;SDS011;8469;60.136;15.180;2023-06-22T05:31:49;8.25;;;6.53;;
16705;SDS011;8469;60.136;15.180;2023-06-22T05:34:16;7.15;;;6.37;;
16705;SDS011;8469;60.136;15.180;2023-06-22T05:36:44;8.60;;;6.40;;
16705;SDS011;8469;60.136;15.180;2023-06-22T05:39:16;10.40;;;6.53;;
16705;SDS011;8469;60.136;15.180;2023-06-22T05:41:40;7.87;;;6.63;;
16705;SDS011;8469;60.136;15.180;2023-06-22T05:44:07;9.38;;;6.12;;
16705;SDS011;8469;60.136;15.180;2023-06-22T05:46:35;7.12;;;6.15;;
16705;SDS011;8469;60.136;15.180;2023-06-22T05:49:02;8.20;;;6.50;;
16705;SDS011;8469;60.136;15.180;2023-06-22T05:51:32;6.87;;;6.17;;
16705;SDS011;8469;60.136;15.180;2023-06-22T05:54:00;8.53;;;6.15;;
16705;SDS011;8469;60.136;15.180;2023-06-22T05:56:27;6.87;;;6.17;;
16705;SDS011;8469;60.136;15.180;2023-06-22T05:58:54;9.73;;;6.00;;
16705;SDS011;8469;60.136;15.180;2023-06-22T06:01:22;9.23;;;5.73;;
16705;SDS011;8469;60.136;15.180;2023-06-22T06:03:49;8.80;;;6.12;;
16705;SDS011;8469;60.136;15.180;2023-06-22T06:06:18;6.87;;;5.70;;
16705;SDS011;8469;60.136;15.180;2023-06-22T06:08:50;7.80;;;5.85;;
16705;SDS011;8469;60.136;15.180;2023-06-22T06:11:17;6.90;;;5.70;;
16705;SDS011;8469;60.136;15.180;2023-06-22T06:13:45;7.85;;;5.33;;
16705;SDS011;8469;60.136;15.180;2023-06-22T06:16:12;8.60;;;5.20;;
16705;SDS011;8469;60.136;15.180;2023-06-22T06:18:40;5.92;;;5.33;;
16705;SDS011;8469;60.136;15.180;2023-06-22T06:21:07;17.67;;;6.37;;
16705;SDS011;8469;60.136;15.180;2023-06-22T06:23:35;6.87;;;5.10;;
16705;SDS011;8469;60.136;15.180;2023-06-22T06:26:06;6.92;;;5.20;;
16705;SDS011;8469;60.136;15.180;2023-06-22T06:28:33;5.50;;;5.00;;
16705;SDS011;8469;60.136;15.180;2023-06-22T06:31:00;5.08;;;4.58;;
16705;SDS011;8469;60.136;15.180;2023-06-22T06:33:28;5.25;;;4.40;;
16705;SDS011;8469;60.136;15.180;2023-06-22T06:35:55;5.15;;;4.40;;
16705;SDS011;8469;60.136;15.180;2023-06-22T06:38:22;4.95;;;4.45;;
16705;SDS011;8469;60.136;15.180;2023-06-22T06:40:50;6.17;;;4.67;;
16705;SDS011;8469;60.136;15.180;2023-06-22T06:43:18;6.03;;;4.05;;
16705;SDS011;8469;60.136;15.180;2023-06-22T06:45:45;6.85;;;4.37;;
16705;SDS011;8469;60.136;15.180;2023-06-22T06:48:12;4.55;;;4.12;;
16705;SDS011;8469;60.136;15.180;2023-06-22T06:50:40;6.72;;;4.40;;
16705;SDS011;8469;60.136;15.180;2023-06-22T06:53:09;4.60;;;4.20;;
16705;SDS011;8469;60.136;15.180;2023-06-22T06:55:36;5.30;;;4.40;;
16705;SDS011;8469;60.136;15.180;2023-06-22T06:58:04;5.35;;;4.30;;
16705;SDS011;8469;60.136;15.180;2023-06-22T07:00:33;6.63;;;4.93;;
16705;SDS011;8469;60.136;15.180;2023-06-22T07:03:01;6.05;;;4.40;;
16705;SDS011;8469;60.136;15.180;2023-06-22T07:05:29;4.87;;;3.90;;
16705;SDS011;8469;60.136;15.180;2023-06-22T07:07:57;5.30;;;4.17;;
16705;SDS011;8469;60.136;15.180;2023-06-22T07:10:25;4.70;;;4.07;;
16705;SDS011;8469;60.136;15.180;2023-06-22T07:12:52;6.58;;;4.08;;
16705;SDS011;8469;60.136;15.180;2023-06-22T07:15:20;4.00;;;3.60;;
16705;SDS011;8469;60.136;15.180;2023-06-22T07:17:47;7.35;;;3.80;;
16705;SDS011;8469;60.136;15.180;2023-06-22T07:20:14;8.68;;;3.50;;
16705;SDS011;8469;60.136;15.180;2023-06-22T07:22:43;4.93;;;3.90;;
16705;SDS011;8469;60.136;15.180;2023-06-22T07:25:10;4.62;;;3.87;;
16705;SDS011;8469;60.136;15.180;2023-06-22T07:27:43;4.30;;;3.90;;
16705;SDS011;8469;60.136;15.180;2023-06-22T07:30:09;5.05;;;4.10;;
16705;SDS011;8469;60.136;15.180;2023-06-22T07:32:36;6.95;;;3.80;;
16705;SDS011;8469;60.136;15.180;2023-06-22T07:35:04;3.72;;;3.42;;
16705;SDS011;8469;60.136;15.180;2023-06-22T07:37:31;8.73;;;3.92;;
16705;SDS011;8469;60.136;15.180;2023-06-22T07:40:00;5.22;;;3.60;;
16705;SDS011;8469;60.136;15.180;2023-06-22T07:42:29;4.15;;;3.55;;
16705;SDS011;8469;60.136;15.180;2023-06-22T07:44:58;7.55;;;3.58;;
16705;SDS011;8469;60.136;15.180;2023-06-22T07:47:25;3.75;;;3.45;;
16705;SDS011;8469;60.136;15.180;2023-06-22T07:49:55;4.03;;;3.33;;
16705;SDS011;8469;60.136;15.180;2023-06-22T07:52:24;4.20;;;3.80;;
16705;SDS011;8469;60.136;15.180;2023-06-22T07:54:51;3.87;;;3.47;;
16705;SDS011;8469;60.136;15.180;2023-06-22T07:57:20;5.33;;;3.67;;
16705;SDS011;8469;60.136;15.180;2023-06-22T07:59:47;6.83;;;3.87;;
16705;SDS011;8469;60.136;15.180;2023-06-22T08:02:15;4.53;;;3.90;;
16705;SDS011;8469;60.136;15.180;2023-06-22T08:04:42;4.67;;;3.85;;
16705;SDS011;8469;60.136;15.180;2023-06-22T08:07:09;3.83;;;3.43;;
16705;SDS011;8469;60.136;15.180;2023-06-22T08:09:36;5.90;;;3.60;;
16705;SDS011;8469;60.136;15.180;2023-06-22T08:12:04;4.65;;;3.05;;
16705;SDS011;8469;60.136;15.180;2023-06-22T08:14:32;5.17;;;3.30;;
16705;SDS011;8469;60.136;15.180;2023-06-22T08:17:01;5.55;;;3.22;;
16705;SDS011;8469;60.136;15.180;2023-06-22T08:19:28;4.40;;;3.12;;
16705;SDS011;8469;60.136;15.180;2023-06-22T08:21:55;4.47;;;3.30;;
16705;SDS011;8469;60.136;15.180;2023-06-22T08:24:23;3.65;;;3.35;;
16705;SDS011;8469;60.136;15.180;2023-06-22T08:26:51;5.03;;;3.10;;
16705;SDS011;8469;60.136;15.180;2023-06-22T08:29:19;5.53;;;3.20;;
16705;SDS011;8469;60.136;15.180;2023-06-22T08:31:46;6.90;;;3.33;;
16705;SDS011;8469;60.136;15.180;2023-06-22T08:34:14;7.33;;;3.05;;
16705;SDS011;8469;60.136;15.180;2023-06-22T08:36:41;3.40;;;3.10;;
16705;SDS011;8469;60.136;15.180;2023-06-22T08:39:10;4.22;;;2.95;;
16705;SDS011;8469;60.136;15.180;2023-06-22T08:41:37;4.53;;;3.02;;
16705;SDS011;8469;60.136;15.180;2023-06-22T08:44:05;3.43;;;2.83;;
16705;SDS011;8469;60.136;15.180;2023-06-22T08:46:32;4.15;;;2.90;;
16705;SDS011;8469;60.136;15.180;2023-06-22T08:48:59;6.80;;;3.17;;
16705;SDS011;8469;60.136;15.180;2023-06-22T08:51:27;3.10;;;2.80;;
16705;SDS011;8469;60.136;15.180;2023-06-22T08:53:55;5.10;;;3.17;;
16705;SDS011;8469;60.136;15.180;2023-06-22T08:56:22;2.90;;;2.70;;
16705;SDS011;8469;60.136;15.180;2023-06-22T08:58:50;3.80;;;2.70;;
16705;SDS011;8469;60.136;15.180;2023-06-22T09:01:17;3.70;;;2.87;;
16705;SDS011;8469;60.136;15.180;2023-06-22T09:03:45;6.00;;;3.02;;
16705;SDS011;8469;60.136;15.180;2023-06-22T09:06:13;2.95;;;2.75;;
16705;SDS011;8469;60.136;15.180;2023-06-22T09:08:42;3.07;;;2.60;;
16705;SDS011;8469;60.136;15.180;2023-06-22T09:11:10;3.87;;;2.77;;
16705;SDS011;8469;60.136;15.180;2023-06-22T09:13:36;4.90;;;2.70;;
16705;SDS011;8469;60.136;15.180;2023-06-22T09:16:06;3.37;;;2.80;;
16705;SDS011;8469;60.136;15.180;2023-06-22T09:18:36;4.40;;;2.80;;
16705;SDS011;8469;60.136;15.180;2023-06-22T09:21:03;4.15;;;2.55;;
16705;SDS011;8469;60.136;15.180;2023-06-22T09:23:31;3.73;;;2.73;;
16705;SDS011;8469;60.136;15.180;2023-06-22T09:25:58;4.35;;;3.20;;
16705;SDS011;8469;60.136;15.180;2023-06-22T09:28:25;6.75;;;2.75;;
16705;SDS011;8469;60.136;15.180;2023-06-22T09:30:53;11.53;;;3.20;;
16705;SDS011;8469;60.136;15.180;2023-06-22T09:33:22;2.80;;;2.62;;
16705;SDS011;8469;60.136;15.180;2023-06-22T09:35:49;3.22;;;2.85;;
16705;SDS011;8469;60.136;15.180;2023-06-22T09:38:17;3.05;;;2.75;;
16705;SDS011;8469;60.136;15.180;2023-06-22T09:40:44;4.50;;;2.80;;
16705;SDS011;8469;60.136;15.180;2023-06-22T09:43:11;3.53;;;2.83;;
16705;SDS011;8469;60.136;15.180;2023-06-22T09:45:39;2.98;;;2.67;;
16705;SDS011;8469;60.136;15.180;2023-06-22T09:48:06;2.75;;;2.55;;
16705;SDS011;8469;60.136;15.180;2023-06-22T09:50:36;2.83;;;2.45;;
16705;SDS011;8469;60.136;15.180;2023-06-22T09:53:03;3.65;;;2.80;;
16705;SDS011;8469;60.136;15.180;2023-06-22T09:55:31;3.13;;;2.80;;
16705;SDS011;8469;60.136;15.180;2023-06-22T09:57:58;3.57;;;2.87;;
16705;SDS011;8469;60.136;15.180;2023-06-22T10:00:26;3.10;;;2.90;;
16705;SDS011;8469;60.136;15.180;2023-06-22T10:02:53;2.95;;;2.75;;
16705;SDS011;8469;60.136;15.180;2023-06-22T10:05:22;5.22;;;2.70;;
16705;SDS011;8469;60.136;15.180;2023-06-22T10:07:49;3.40;;;2.60;;
16705;SDS011;8469;60.136;15.180;2023-06-22T10:10:16;4.87;;;2.50;;
16705;SDS011;8469;60.136;15.180;2023-06-22T10:12:54;2.92;;;2.72;;
16705;SDS011;8469;60.136;15.180;2023-06-22T10:15:13;3.45;;;2.90;;
16705;SDS011;8469;60.136;15.180;2023-06-22T10:17:41;5.03;;;2.85;;
16705;SDS011;8469;60.136;15.180;2023-06-22T10:20:08;6.15;;;2.72;;
16705;SDS011;8469;60.136;15.180;2023-06-22T10:22:43;2.83;;;2.47;;
16705;SDS011;8469;60.136;15.180;2023-06-22T10:25:11;6.58;;;2.83;;
16705;SDS011;8469;60.136;15.180;2023-06-22T10:27:38;13.98;;;3.17;;
16705;SDS011;8469;60.136;15.180;2023-06-22T10:30:07;7.62;;;2.65;;
16705;SDS011;8469;60.136;15.180;2023-06-22T10:32:37;2.80;;;2.60;;
16705;SDS011;8469;60.136;15.180;2023-06-22T10:35:04;2.98;;;2.50;;
16705;SDS011;8469;60.136;15.180;2023-06-22T10:37:32;2.87;;;2.60;;
16705;SDS011;8469;60.136;15.180;2023-06-22T10:39:59;2.57;;;2.37;;
16705;SDS011;8469;60.136;15.180;2023-06-22T10:42:27;2.63;;;2.43;;
16705;SDS011;8469;60.136;15.180;2023-06-22T10:44:54;4.20;;;2.55;;
16705;SDS011;8469;60.136;15.180;2023-06-22T10:47:21;2.72;;;2.50;;
16705;SDS011;8469;60.136;15.180;2023-06-22T10:49:49;3.47;;;2.65;;
16705;SDS011;8469;60.136;15.180;2023-06-22T10:52:16;4.35;;;2.37;;
16705;SDS011;8469;60.136;15.180;2023-06-22T10:54:43;2.52;;;2.33;;
16705;SDS011;8469;60.136;15.180;2023-06-22T10:57:11;10.70;;;2.30;;
16705;SDS011;8469;60.136;15.180;2023-06-22T10:59:38;5.60;;;2.47;;
16705;SDS011;8469;60.136;15.180;2023-06-22T11:02:06;3.55;;;2.22;;
16705;SDS011;8469;60.136;15.180;2023-06-22T11:04:33;4.78;;;2.33;;
16705;SDS011;8469;60.136;15.180;2023-06-22T11:07:01;4.67;;;2.60;;
16705;SDS011;8469;60.136;15.180;2023-06-22T11:09:29;2.72;;;2.00;;
16705;SDS011;8469;60.136;15.180;2023-06-22T11:11:56;2.98;;;2.27;;
16705;SDS011;8469;60.136;15.180;2023-06-22T11:14:25;13.40;;;2.80;;
16705;SDS011;8469;60.136;15.180;2023-06-22T11:16:52;4.75;;;1.95;;
16705;SDS011;8469;60.136;15.180;2023-06-22T11:19:20;1.92;;;1.82;;
16705;SDS011;8469;60.136;15.180;2023-06-22T11:21:46;2.83;;;2.05;;
16705;SDS011;8469;60.136;15.180;2023-06-22T11:24:15;2.50;;;2.17;;
16705;SDS011;8469;60.136;15.180;2023-06-22T11:26:43;3.50;;;2.30;;
16705;SDS011;8469;60.136;15.180;2023-06-22T11:29:10;2.87;;;2.00;;
16705;SDS011;8469;60.136;15.180;2023-06-22T11:31:38;4.55;;;2.05;;
16705;SDS011;8469;60.136;15.180;2023-06-22T11:34:05;3.80;;;1.90;;
16705;SDS011;8469;60.136;15.180;2023-06-22T11:36:32;2.37;;;2.17;;
16705;SDS011;8469;60.136;15.180;2023-06-22T11:39:01;2.23;;;1.93;;
16705;SDS011;8469;60.136;15.180;2023-06-22T11:41:29;2.85;;;1.67;;
16705;SDS011;8469;60.136;15.180;2023-06-22T11:43:56;6.25;;;1.90;;
16705;SDS011;8469;60.136;15.180;2023-06-22T11:46:23;7.30;;;1.70;;
16705;SDS011;8469;60.136;15.180;2023-06-22T11:48:51;2.00;;;1.90;;
16705;SDS011;8469;60.136;15.180;2023-06-22T11:51:18;4.75;;;2.30;;
16705;SDS011;8469;60.136;15.180;2023-06-22T11:53:45;10.10;;;2.20;;
16705;SDS011;8469;60.136;15.180;2023-06-22T11:56:12;3.07;;;2.10;;
16705;SDS011;8469;60.136;15.180;2023-06-22T11:58:40;3.37;;;2.00;;
16705;SDS011;8469;60.136;15.180;2023-06-22T12:01:07;5.47;;;2.30;;
16705;SDS011;8469;60.136;15.180;2023-06-22T12:03:35;2.70;;;1.90;;
16705;SDS011;8469;60.136;15.180;2023-06-22T12:06:03;2.67;;;1.87;;
16705;SDS011;8469;60.136;15.180;2023-06-22T12:08:32;2.15;;;1.92;;
16705;SDS011;8469;60.136;15.180;2023-06-22T12:11:00;1.70;;;1.60;;
16705;SDS011;8469;60.136;15.180;2023-06-22T12:13:28;2.20;;;2.10;;
16705;SDS011;8469;60.136;15.180;2023-06-22T12:16:00;9.47;;;2.10;;
16705;SDS011;8469;60.136;15.180;2023-06-22T12:18:24;2.15;;;1.80;;
16705;SDS011;8469;60.136;15.180;2023-06-22T12:20:52;2.45;;;1.70;;
16705;SDS011;8469;60.136;15.180;2023-06-22T12:23:19;5.97;;;1.80;;
16705;SDS011;8469;60.136;15.180;2023-06-22T12:25:46;7.00;;;2.10;;
16705;SDS011;8469;60.136;15.180;2023-06-22T12:28:13;5.92;;;1.90;;
16705;SDS011;8469;60.136;15.180;2023-06-22T12:30:41;2.30;;;1.90;;
16705;SDS011;8469;60.136;15.180;2023-06-22T12:33:09;2.10;;;1.85;;
16705;SDS011;8469;60.136;15.180;2023-06-22T12:35:36;4.85;;;1.80;;
16705;SDS011;8469;60.136;15.180;2023-06-22T12:38:03;1.80;;;1.70;;
16705;SDS011;8469;60.136;15.180;2023-06-22T12:40:33;3.22;;;1.80;;
16705;SDS011;8469;60.136;15.180;2023-06-22T12:43:00;2.40;;;1.70;;
16705;SDS011;8469;60.136;15.180;2023-06-22T12:45:28;13.72;;;2.17;;
16705;SDS011;8469;60.136;15.180;2023-06-22T12:47:57;12.53;;;2.02;;
16705;SDS011;8469;60.136;15.180;2023-06-22T12:50:25;3.50;;;1.75;;
16705;SDS011;8469;60.136;15.180;2023-06-22T12:52:53;2.98;;;1.77;;
16705;SDS011;8469;60.136;15.180;2023-06-22T12:55:20;2.90;;;1.70;;
16705;SDS011;8469;60.136;15.180;2023-06-22T12:57:48;2.90;;;1.90;;
16705;SDS011;8469;60.136;15.180;2023-06-22T13:00:15;3.33;;;1.50;;
16705;SDS011;8469;60.136;15.180;2023-06-22T13:02:42;2.25;;;1.62;;
16705;SDS011;8469;60.136;15.180;2023-06-22T13:05:10;4.15;;;1.77;;
16705;SDS011;8469;60.136;15.180;2023-06-22T13:07:37;3.70;;;1.60;;
16705;SDS011;8469;60.136;15.180;2023-06-22T13:10:04;2.02;;;1.60;;
16705;SDS011;8469;60.136;15.180;2023-06-22T13:12:32;2.72;;;1.70;;
16705;SDS011;8469;60.136;15.180;2023-06-22T13:14:59;2.80;;;1.70;;
16705;SDS011;8469;60.136;15.180;2023-06-22T13:17:28;2.47;;;1.72;;
16705;SDS011;8469;60.136;15.180;2023-06-22T13:19:56;1.77;;;1.67;;
16705;SDS011;8469;60.136;15.180;2023-06-22T13:22:27;5.60;;;1.90;;
16705;SDS011;8469;60.136;15.180;2023-06-22T13:24:55;2.75;;;1.77;;
16705;SDS011;8469;60.136;15.180;2023-06-22T13:27:23;2.87;;;1.80;;
16705;SDS011;8469;60.136;15.180;2023-06-22T13:29:50;108.60;;;6.53;;
16705;SDS011;8469;60.136;15.180;2023-06-22T13:32:18;6.28;;;1.82;;
16705;SDS011;8469;60.136;15.180;2023-06-22T13:34:45;2.80;;;1.80;;
16705;SDS011;8469;60.136;15.180;2023-06-22T13:37:13;2.42;;;1.70;;
16705;SDS011;8469;60.136;15.180;2023-06-22T13:39:40;3.17;;;1.60;;
16705;SDS011;8469;60.136;15.180;2023-06-22T13:42:07;3.60;;;1.53;;
16705;SDS011;8469;60.136;15.180;2023-06-22T13:44:35;2.87;;;1.70;;
16705;SDS011;8469;60.136;15.180;2023-06-22T13:47:02;1.90;;;1.80;;
16705;SDS011;8469;60.136;15.180;2023-06-22T13:49:31;1.62;;;1.52;;
16705;SDS011;8469;60.136;15.180;2023-06-22T13:51:58;2.40;;;1.70;;
16705;SDS011;8469;60.136;15.180;2023-06-22T13:54:25;2.00;;;1.80;;
16705;SDS011;8469;60.136;15.180;2023-06-22T13:56:55;1.73;;;1.63;;
16705;SDS011;8469;60.136;15.180;2023-06-22T13:59:22;3.30;;;1.83;;
16705;SDS011;8469;60.136;15.180;2023-06-22T14:01:50;2.83;;;1.70;;
16705;SDS011;8469;60.136;15.180;2023-06-22T14:04:17;1.70;;;1.60;;
16705;SDS011;8469;60.136;15.180;2023-06-22T14:06:45;2.87;;;1.80;;
16705;SDS011;8469;60.136;15.180;2023-06-22T14:09:12;3.67;;;1.60;;
16705;SDS011;8469;60.136;15.180;2023-06-22T14:11:40;1.75;;;1.60;;
16705;SDS011;8469;60.136;15.180;2023-06-22T14:14:08;3.27;;;2.12;;
16705;SDS011;8469;60.136;15.180;2023-06-22T14:16:37;2.47;;;1.80;;
16705;SDS011;8469;60.136;15.180;2023-06-22T14:19:04;2.25;;;1.72;;
16705;SDS011;8469;60.136;15.180;2023-06-22T14:21:32;2.55;;;1.65;;
16705;SDS011;8469;60.136;15.180;2023-06-22T14:23:58;4.83;;;1.50;;
16705;SDS011;8469;60.136;15.180;2023-06-22T14:26:26;31.73;;;2.90;;
16705;SDS011;8469;60.136;15.180;2023-06-22T14:28:57;1.85;;;1.70;;
16705;SDS011;8469;60.136;15.180;2023-06-22T14:31:24;2.47;;;1.67;;
16705;SDS011;8469;60.136;15.180;2023-06-22T14:33:52;2.33;;;1.40;;
16705;SDS011;8469;60.136;15.180;2023-06-22T14:36:19;2.83;;;1.50;;
16705;SDS011;8469;60.136;15.180;2023-06-22T14:38:47;4.70;;;1.70;;
16705;SDS011;8469;60.136;15.180;2023-06-22T14:41:14;1.98;;;1.65;;
16705;SDS011;8469;60.136;15.180;2023-06-22T14:43:46;1.85;;;1.67;;
16705;SDS011;8469;60.136;15.180;2023-06-22T14:46:14;17.92;;;2.00;;
16705;SDS011;8469;60.136;15.180;2023-06-22T14:48:41;1.82;;;1.40;;
16705;SDS011;8469;60.136;15.180;2023-06-22T14:51:08;1.32;;;1.20;;
16705;SDS011;8469;60.136;15.180;2023-06-22T14:53:37;1.42;;;1.32;;
16705;SDS011;8469;60.136;15.180;2023-06-22T14:56:04;2.40;;;1.45;;
16705;SDS011;8469;60.136;15.180;2023-06-22T14:58:32;1.42;;;1.30;;